sensor_id;sensor_type;location;lat;lon;timestamp;temperature;humidity
210;DHT22;90;48.810;9.120;2023-07-13T00:00:48;22.10;59.90
210;DHT22;90;48.810;9.120;2023-07-13T00:03:15;21.90;59.80
210;DHT22;90;48.810;9.120;2023-07-13T00:05:42;21.90;59.70
210;DHT22;90;48.810;9.120;2023-07-13T00:08:10;21.70;59.90
210;DHT22;90;48.810;9.120;2023-07-13T00:10:41;21.70;59.90
210;DHT22;90;48.810;9.120;2023-07-13T00:13:08;21.70;59.30
210;DHT22;90;48.810;9.120;2023-07-13T00:15:35;21.70;59.60
210;DHT22;90;48.810;9.120;2023-07-13T00:18:02;21.60;59.80
210;DHT22;90;48.810;9.120;2023-07-13T00:20:29;21.60;59.80
210;DHT22;90;48.810;9.120;2023-07-13T00:22:55;21.60;59.80
210;DHT22;90;48.810;9.120;2023-07-13T00:25:23;21.50;59.70
210;DHT22;90;48.810;9.120;2023-07-13T00:27:52;21.40;59.70
210;DHT22;90;48.810;9.120;2023-07-13T00:30:19;21.30;60.20
210;DHT22;90;48.810;9.120;2023-07-13T00:32:46;21.20;60.30
210;DHT22;90;48.810;9.120;2023-07-13T00:35:14;21.10;60.60
210;DHT22;90;48.810;9.120;2023-07-13T00:37:40;21.20;60.20
210;DHT22;90;48.810;9.120;2023-07-13T00:40:09;21.20;59.70
210;DHT22;90;48.810;9.120;2023-07-13T00:42:36;21.20;59.70
210;DHT22;90;48.810;9.120;2023-07-13T00:48:16;21.10;59.20
210;DHT22;90;48.810;9.120;2023-07-13T00:50:44;21.00;60.10
210;DHT22;90;48.810;9.120;2023-07-13T00:53:11;21.00;59.70
210;DHT22;90;48.810;9.120;2023-07-13T00:55:39;21.00;59.70
210;DHT22;90;48.810;9.120;2023-07-13T00:58:06;21.00;59.90
210;DHT22;90;48.810;9.120;2023-07-13T01:00:36;21.00;59.40
210;DHT22;90;48.810;9.120;2023-07-13T01:03:04;21.00;59.60
210;DHT22;90;48.810;9.120;2023-07-13T01:05:33;21.00;59.30
210;DHT22;90;48.810;9.120;2023-07-13T01:08:01;21.00;59.40
210;DHT22;90;48.810;9.120;2023-07-13T01:10:29;21.00;59.20
210;DHT22;90;48.810;9.120;2023-07-13T01:13:04;21.00;58.90
210;DHT22;90;48.810;9.120;2023-07-13T01:15:38;21.00;59.20
210;DHT22;90;48.810;9.120;2023-07-13T01:18:15;21.10;59.20
210;DHT22;90;48.810;9.120;2023-07-13T01:20:50;21.20;59.10
210;DHT22;90;48.810;9.120;2023-07-13T01:23:17;21.20;59.00
210;DHT22;90;48.810;9.120;2023-07-13T01:25:44;21.20;58.50
210;DHT22;90;48.810;9.120;2023-07-13T01:28:11;21.20;58.50
210;DHT22;90;48.810;9.120;2023-07-13T01:30:39;21.20;58.80
210;DHT22;90;48.810;9.120;2023-07-13T01:33:06;21.20;58.30
210;DHT22;90;48.810;9.120;2023-07-13T01:35:33;21.20;58.80
210;DHT22;90;48.810;9.120;2023-07-13T01:38:01;21.10;58.50
210;DHT22;90;48.810;9.120;2023-07-13T01:40:28;21.10;57.70
210;DHT22;90;48.810;9.120;2023-07-13T01:42:55;21.00;58.30
210;DHT22;90;48.810;9.120;2023-07-13T01:45:22;20.90;58.10
210;DHT22;90;48.810;9.120;2023-07-13T01:47:49;21.00;58.30
210;DHT22;90;48.810;9.120;2023-07-13T01:50:16;21.00;58.10
210;DHT22;90;48.810;9.120;2023-07-13T01:52:42;21.00;57.90
210;DHT22;90;48.810;9.120;2023-07-13T01:55:11;20.80;58.40
210;DHT22;90;48.810;9.120;2023-07-13T01:57:37;20.80;58.60
210;DHT22;90;48.810;9.120;2023-07-13T02:00:06;21.00;58.40
210;DHT22;90;48.810;9.120;2023-07-13T02:02:33;21.00;58.50
210;DHT22;90;48.810;9.120;2023-07-13T02:04:59;21.00;58.70
210;DHT22;90;48.810;9.120;2023-07-13T02:07:26;20.90;59.10
210;DHT22;90;48.810;9.120;2023-07-13T02:09:53;20.90;58.40
210;DHT22;90;48.810;9.120;2023-07-13T02:12:21;20.80;59.00
210;DHT22;90;48.810;9.120;2023-07-13T02:14:47;20.90;58.70
210;DHT22;90;48.810;9.120;2023-07-13T02:17:14;20.90;59.80
210;DHT22;90;48.810;9.120;2023-07-13T02:19:41;20.70;59.20
210;DHT22;90;48.810;9.120;2023-07-13T02:22:08;20.70;59.20
210;DHT22;90;48.810;9.120;2023-07-13T02:24:35;20.70;59.40
210;DHT22;90;48.810;9.120;2023-07-13T02:27:02;20.70;59.60
210;DHT22;90;48.810;9.120;2023-07-13T02:29:30;20.60;61.80
210;DHT22;90;48.810;9.120;2023-07-13T02:31:57;20.60;63.00
210;DHT22;90;48.810;9.120;2023-07-13T02:34:23;20.60;63.40
210;DHT22;90;48.810;9.120;2023-07-13T02:36:50;20.40;63.80
210;DHT22;90;48.810;9.120;2023-07-13T02:39:17;20.30;64.20
210;DHT22;90;48.810;9.120;2023-07-13T02:41:44;20.30;63.90
210;DHT22;90;48.810;9.120;2023-07-13T02:44:12;20.20;64.60
210;DHT22;90;48.810;9.120;2023-07-13T02:46:40;20.20;65.40
210;DHT22;90;48.810;9.120;2023-07-13T02:49:07;20.30;64.40
210;DHT22;90;48.810;9.120;2023-07-13T02:51:34;20.20;64.00
210;DHT22;90;48.810;9.120;2023-07-13T02:54:01;20.00;64.30
210;DHT22;90;48.810;9.120;2023-07-13T02:56:30;19.90;64.70
210;DHT22;90;48.810;9.120;2023-07-13T02:58:57;19.80;64.70
210;DHT22;90;48.810;9.120;2023-07-13T03:01:24;19.80;64.80
210;DHT22;90;48.810;9.120;2023-07-13T03:03:52;19.70;64.90
210;DHT22;90;48.810;9.120;2023-07-13T03:06:20;19.60;65.40
210;DHT22;90;48.810;9.120;2023-07-13T03:08:47;19.50;65.70
210;DHT22;90;48.810;9.120;2023-07-13T03:11:17;19.50;65.70
210;DHT22;90;48.810;9.120;2023-07-13T03:13:44;19.40;66.00
210;DHT22;90;48.810;9.120;2023-07-13T03:16:12;19.40;66.20
210;DHT22;90;48.810;9.120;2023-07-13T03:18:39;19.40;66.10
210;DHT22;90;48.810;9.120;2023-07-13T03:21:07;19.40;66.10
210;DHT22;90;48.810;9.120;2023-07-13T03:23:34;19.30;66.50
210;DHT22;90;48.810;9.120;2023-07-13T03:26:02;19.20;67.70
210;DHT22;90;48.810;9.120;2023-07-13T03:28:29;19.20;67.70
210;DHT22;90;48.810;9.120;2023-07-13T03:31:01;19.10;68.00
210;DHT22;90;48.810;9.120;2023-07-13T03:33:28;19.20;67.80
210;DHT22;90;48.810;9.120;2023-07-13T03:35:56;19.20;67.70
210;DHT22;90;48.810;9.120;2023-07-13T03:38:24;19.20;67.70
210;DHT22;90;48.810;9.120;2023-07-13T03:40:51;19.20;68.10
210;DHT22;90;48.810;9.120;2023-07-13T03:43:18;19.30;67.90
210;DHT22;90;48.810;9.120;2023-07-13T03:45:46;19.10;68.50
210;DHT22;90;48.810;9.120;2023-07-13T03:48:13;19.10;68.50
210;DHT22;90;48.810;9.120;2023-07-13T03:50:39;19.10;68.30
210;DHT22;90;48.810;9.120;2023-07-13T03:53:06;19.20;68.40
210;DHT22;90;48.810;9.120;2023-07-13T03:55:34;19.30;67.40
210;DHT22;90;48.810;9.120;2023-07-13T03:58:28;19.40;67.40
210;DHT22;90;48.810;9.120;2023-07-13T04:00:56;19.40;67.50
210;DHT22;90;48.810;9.120;2023-07-13T04:03:23;19.50;68.10
210;DHT22;90;48.810;9.120;2023-07-13T04:05:50;19.50;68.40
210;DHT22;90;48.810;9.120;2023-07-13T04:08:17;19.50;68.30
210;DHT22;90;48.810;9.120;2023-07-13T04:10:45;19.50;68.60
210;DHT22;90;48.810;9.120;2023-07-13T04:13:11;19.60;69.40
210;DHT22;90;48.810;9.120;2023-07-13T04:15:39;19.50;69.60
210;DHT22;90;48.810;9.120;2023-07-13T04:18:06;19.60;69.30
210;DHT22;90;48.810;9.120;2023-07-13T04:20:33;19.60;68.50
210;DHT22;90;48.810;9.120;2023-07-13T04:22:59;19.60;67.70
210;DHT22;90;48.810;9.120;2023-07-13T04:25:26;19.60;67.50
210;DHT22;90;48.810;9.120;2023-07-13T04:27:55;19.50;67.20
210;DHT22;90;48.810;9.120;2023-07-13T04:30:21;19.50;67.60
210;DHT22;90;48.810;9.120;2023-07-13T04:32:49;19.50;67.80
210;DHT22;90;48.810;9.120;2023-07-13T04:35:17;19.60;67.50
210;DHT22;90;48.810;9.120;2023-07-13T04:37:46;19.50;67.80
210;DHT22;90;48.810;9.120;2023-07-13T04:40:12;19.40;68.20
210;DHT22;90;48.810;9.120;2023-07-13T04:42:39;19.40;68.60
210;DHT22;90;48.810;9.120;2023-07-13T04:45:08;19.50;68.70
210;DHT22;90;48.810;9.120;2023-07-13T04:47:34;19.50;68.30
210;DHT22;90;48.810;9.120;2023-07-13T04:50:02;19.50;69.10
210;DHT22;90;48.810;9.120;2023-07-13T04:52:28;19.50;68.60
210;DHT22;90;48.810;9.120;2023-07-13T04:54:55;19.50;68.20
210;DHT22;90;48.810;9.120;2023-07-13T04:57:22;19.40;68.20
210;DHT22;90;48.810;9.120;2023-07-13T04:59:49;19.40;68.10
210;DHT22;90;48.810;9.120;2023-07-13T05:02:17;19.50;67.70
210;DHT22;90;48.810;9.120;2023-07-13T05:04:46;19.50;67.50
210;DHT22;90;48.810;9.120;2023-07-13T05:07:13;19.50;67.50
210;DHT22;90;48.810;9.120;2023-07-13T05:09:40;19.40;67.80
210;DHT22;90;48.810;9.120;2023-07-13T05:12:08;19.40;68.00
210;DHT22;90;48.810;9.120;2023-07-13T05:14:35;19.60;67.30
210;DHT22;90;48.810;9.120;2023-07-13T05:17:03;19.90;66.60
210;DHT22;90;48.810;9.120;2023-07-13T05:19:31;19.90;66.70
210;DHT22;90;48.810;9.120;2023-07-13T05:21:58;20.00;66.90
210;DHT22;90;48.810;9.120;2023-07-13T05:24:24;20.10;66.50
210;DHT22;90;48.810;9.120;2023-07-13T05:26:51;20.20;66.30
210;DHT22;90;48.810;9.120;2023-07-13T05:29:18;20.20;66.80
210;DHT22;90;48.810;9.120;2023-07-13T05:31:45;20.20;67.20
210;DHT22;90;48.810;9.120;2023-07-13T05:34:12;20.20;67.50
210;DHT22;90;48.810;9.120;2023-07-13T05:36:40;20.20;66.40
210;DHT22;90;48.810;9.120;2023-07-13T05:39:06;20.30;65.50
210;DHT22;90;48.810;9.120;2023-07-13T05:41:33;20.30;64.00
210;DHT22;90;48.810;9.120;2023-07-13T05:44:00;20.30;63.90
210;DHT22;90;48.810;9.120;2023-07-13T05:48:54;20.50;63.60
210;DHT22;90;48.810;9.120;2023-07-13T05:51:20;20.50;64.00
210;DHT22;90;48.810;9.120;2023-07-13T05:53:48;20.60;65.30
210;DHT22;90;48.810;9.120;2023-07-13T05:56:15;20.70;65.80
210;DHT22;90;48.810;9.120;2023-07-13T05:58:42;20.70;66.20
210;DHT22;90;48.810;9.120;2023-07-13T06:01:10;20.70;65.40
210;DHT22;90;48.810;9.120;2023-07-13T06:03:37;20.70;65.40
210;DHT22;90;48.810;9.120;2023-07-13T06:06:04;20.80;64.50
210;DHT22;90;48.810;9.120;2023-07-13T06:08:32;20.80;64.20
210;DHT22;90;48.810;9.120;2023-07-13T06:11:05;20.80;64.00
210;DHT22;90;48.810;9.120;2023-07-13T06:13:32;20.90;62.50
210;DHT22;90;48.810;9.120;2023-07-13T06:15:59;20.90;58.50
210;DHT22;90;48.810;9.120;2023-07-13T06:18:26;20.90;58.20
210;DHT22;90;48.810;9.120;2023-07-13T06:20:52;20.90;58.50
210;DHT22;90;48.810;9.120;2023-07-13T06:23:19;21.00;58.60
210;DHT22;90;48.810;9.120;2023-07-13T06:25:45;21.00;57.50
210;DHT22;90;48.810;9.120;2023-07-13T06:28:13;21.00;57.60
210;DHT22;90;48.810;9.120;2023-07-13T06:30:40;21.00;57.50
210;DHT22;90;48.810;9.120;2023-07-13T06:33:07;21.00;57.10
210;DHT22;90;48.810;9.120;2023-07-13T06:35:34;21.10;57.20
210;DHT22;90;48.810;9.120;2023-07-13T06:38:01;21.20;56.90
210;DHT22;90;48.810;9.120;2023-07-13T06:40:28;21.20;55.90
210;DHT22;90;48.810;9.120;2023-07-13T06:42:56;21.20;54.50
210;DHT22;90;48.810;9.120;2023-07-13T06:45:24;21.40;55.10
210;DHT22;90;48.810;9.120;2023-07-13T06:47:50;21.50;54.90
210;DHT22;90;48.810;9.120;2023-07-13T06:50:17;21.50;54.80
210;DHT22;90;48.810;9.120;2023-07-13T06:52:43;21.60;55.30
210;DHT22;90;48.810;9.120;2023-07-13T06:55:10;21.60;54.70
210;DHT22;90;48.810;9.120;2023-07-13T06:57:37;21.70;54.40
210;DHT22;90;48.810;9.120;2023-07-13T07:00:05;21.70;53.60
210;DHT22;90;48.810;9.120;2023-07-13T07:02:33;21.80;52.60
210;DHT22;90;48.810;9.120;2023-07-13T07:05:00;21.70;53.20
210;DHT22;90;48.810;9.120;2023-07-13T07:07:27;21.80;53.40
210;DHT22;90;48.810;9.120;2023-07-13T07:09:53;21.90;53.30
210;DHT22;90;48.810;9.120;2023-07-13T07:12:20;21.90;52.70
210;DHT22;90;48.810;9.120;2023-07-13T07:14:47;21.90;53.10
210;DHT22;90;48.810;9.120;2023-07-13T07:17:14;22.00;51.20
210;DHT22;90;48.810;9.120;2023-07-13T07:19:42;22.00;52.30
210;DHT22;90;48.810;9.120;2023-07-13T07:22:08;22.10;51.80
210;DHT22;90;48.810;9.120;2023-07-13T07:24:35;22.00;52.00
210;DHT22;90;48.810;9.120;2023-07-13T07:27:02;22.20;50.90
210;DHT22;90;48.810;9.120;2023-07-13T07:29:28;22.30;51.60
210;DHT22;90;48.810;9.120;2023-07-13T07:31:55;22.30;50.80
210;DHT22;90;48.810;9.120;2023-07-13T07:34:22;22.30;49.90
210;DHT22;90;48.810;9.120;2023-07-13T07:36:51;22.40;49.80
210;DHT22;90;48.810;9.120;2023-07-13T07:39:17;22.10;51.80
210;DHT22;90;48.810;9.120;2023-07-13T07:41:44;22.20;50.60
210;DHT22;90;48.810;9.120;2023-07-13T07:44:11;22.20;50.30
210;DHT22;90;48.810;9.120;2023-07-13T07:46:39;22.20;50.30
210;DHT22;90;48.810;9.120;2023-07-13T07:49:06;22.20;50.50
210;DHT22;90;48.810;9.120;2023-07-13T07:51:33;22.30;50.10
210;DHT22;90;48.810;9.120;2023-07-13T07:54:01;22.30;49.50
210;DHT22;90;48.810;9.120;2023-07-13T07:56:28;22.40;49.10
210;DHT22;90;48.810;9.120;2023-07-13T07:58:54;22.40;49.10
210;DHT22;90;48.810;9.120;2023-07-13T08:01:21;22.50;49.20
210;DHT22;90;48.810;9.120;2023-07-13T08:03:48;22.60;49.30
210;DHT22;90;48.810;9.120;2023-07-13T08:06:15;22.70;49.10
210;DHT22;90;48.810;9.120;2023-07-13T08:08:42;22.70;49.10
210;DHT22;90;48.810;9.120;2023-07-13T08:11:10;22.80;49.30
210;DHT22;90;48.810;9.120;2023-07-13T08:13:37;22.80;49.60
210;DHT22;90;48.810;9.120;2023-07-13T08:16:05;22.80;49.90
210;DHT22;90;48.810;9.120;2023-07-13T08:18:32;22.80;49.90
210;DHT22;90;48.810;9.120;2023-07-13T08:21:03;23.00;49.40
210;DHT22;90;48.810;9.120;2023-07-13T08:23:30;22.80;48.60
210;DHT22;90;48.810;9.120;2023-07-13T08:25:57;22.80;49.80
210;DHT22;90;48.810;9.120;2023-07-13T08:28:28;22.80;49.80
210;DHT22;90;48.810;9.120;2023-07-13T08:30:55;22.80;50.10
210;DHT22;90;48.810;9.120;2023-07-13T08:33:22;22.90;49.30
210;DHT22;90;48.810;9.120;2023-07-13T08:35:50;22.90;49.40
210;DHT22;90;48.810;9.120;2023-07-13T08:38:18;22.90;49.20
210;DHT22;90;48.810;9.120;2023-07-13T08:40:50;22.90;49.10
210;DHT22;90;48.810;9.120;2023-07-13T08:43:20;22.90;49.00
210;DHT22;90;48.810;9.120;2023-07-13T08:45:53;23.20;48.40
210;DHT22;90;48.810;9.120;2023-07-13T08:48:24;23.20;48.00
210;DHT22;90;48.810;9.120;2023-07-13T08:50:55;23.20;48.00
210;DHT22;90;48.810;9.120;2023-07-13T08:53:24;23.30;48.80
210;DHT22;90;48.810;9.120;2023-07-13T08:55:57;23.40;48.50
210;DHT22;90;48.810;9.120;2023-07-13T08:58:25;23.40;48.60
210;DHT22;90;48.810;9.120;2023-07-13T09:01:00;23.50;47.80
210;DHT22;90;48.810;9.120;2023-07-13T09:03:34;23.60;47.10
210;DHT22;90;48.810;9.120;2023-07-13T09:06:03;23.70;46.80
210;DHT22;90;48.810;9.120;2023-07-13T09:08:42;23.70;45.90
210;DHT22;90;48.810;9.120;2023-07-13T09:11:22;23.60;46.50
210;DHT22;90;48.810;9.120;2023-07-13T09:13:58;23.60;47.30
210;DHT22;90;48.810;9.120;2023-07-13T09:16:28;23.60;46.90
210;DHT22;90;48.810;9.120;2023-07-13T09:18:59;23.60;47.40
210;DHT22;90;48.810;9.120;2023-07-13T09:21:31;23.50;47.50
210;DHT22;90;48.810;9.120;2023-07-13T09:24:06;23.70;47.00
210;DHT22;90;48.810;9.120;2023-07-13T09:26:41;23.80;46.00
210;DHT22;90;48.810;9.120;2023-07-13T09:29:21;23.70;46.60
210;DHT22;90;48.810;9.120;2023-07-13T09:31:54;23.80;46.40
210;DHT22;90;48.810;9.120;2023-07-13T09:34:25;23.90;46.40
210;DHT22;90;48.810;9.120;2023-07-13T09:39:25;24.20;45.20
210;DHT22;90;48.810;9.120;2023-07-13T09:42:01;24.10;44.80
210;DHT22;90;48.810;9.120;2023-07-13T09:44:35;24.20;45.30
210;DHT22;90;48.810;9.120;2023-07-13T09:47:16;24.20;45.20
210;DHT22;90;48.810;9.120;2023-07-13T09:49:43;24.10;45.30
210;DHT22;90;48.810;9.120;2023-07-13T09:52:15;24.10;45.50
210;DHT22;90;48.810;9.120;2023-07-13T09:54:45;24.00;45.90
210;DHT22;90;48.810;9.120;2023-07-13T09:57:17;24.00;45.90
210;DHT22;90;48.810;9.120;2023-07-13T09:59:46;24.10;45.20
210;DHT22;90;48.810;9.120;2023-07-13T10:02:29;24.00;45.00
210;DHT22;90;48.810;9.120;2023-07-13T10:05:04;24.10;45.50
210;DHT22;90;48.810;9.120;2023-07-13T10:07:41;24.20;45.20
210;DHT22;90;48.810;9.120;2023-07-13T10:10:15;24.20;44.40
210;DHT22;90;48.810;9.120;2023-07-13T10:12:44;24.40;44.50
210;DHT22;90;48.810;9.120;2023-07-13T10:15:16;24.40;44.50
210;DHT22;90;48.810;9.120;2023-07-13T10:17:48;24.70;44.10
210;DHT22;90;48.810;9.120;2023-07-13T10:20:18;24.70;44.10
210;DHT22;90;48.810;9.120;2023-07-13T10:22:52;24.80;44.20
210;DHT22;90;48.810;9.120;2023-07-13T10:25:22;24.70;45.10
210;DHT22;90;48.810;9.120;2023-07-13T10:27:52;24.60;43.80
210;DHT22;90;48.810;9.120;2023-07-13T10:30:21;24.60;43.90
210;DHT22;90;48.810;9.120;2023-07-13T10:32:52;24.50;43.90
210;DHT22;90;48.810;9.120;2023-07-13T10:35:20;24.70;43.50
210;DHT22;90;48.810;9.120;2023-07-13T10:37:51;24.70;44.00
210;DHT22;90;48.810;9.120;2023-07-13T10:40:24;24.70;44.00
210;DHT22;90;48.810;9.120;2023-07-13T10:42:56;24.70;43.70
210;DHT22;90;48.810;9.120;2023-07-13T10:45:30;24.70;44.20
210;DHT22;90;48.810;9.120;2023-07-13T10:47:59;24.80;43.90
210;DHT22;90;48.810;9.120;2023-07-13T10:50:27;24.80;43.90
210;DHT22;90;48.810;9.120;2023-07-13T10:53:01;24.90;44.00
210;DHT22;90;48.810;9.120;2023-07-13T10:55:33;24.80;44.00
210;DHT22;90;48.810;9.120;2023-07-13T10:58:03;25.00;44.00
210;DHT22;90;48.810;9.120;2023-07-13T11:00:44;24.90;43.70
210;DHT22;90;48.810;9.120;2023-07-13T11:03:17;24.90;44.80
210;DHT22;90;48.810;9.120;2023-07-13T11:08:54;24.90;43.70
210;DHT22;90;48.810;9.120;2023-07-13T11:11:37;24.80;43.70
210;DHT22;90;48.810;9.120;2023-07-13T11:14:14;24.90;43.70
210;DHT22;90;48.810;9.120;2023-07-13T11:19:41;25.10;43.90
210;DHT22;90;48.810;9.120;2023-07-13T11:22:23;25.30;42.60
210;DHT22;90;48.810;9.120;2023-07-13T11:24:57;25.20;43.20
210;DHT22;90;48.810;9.120;2023-07-13T11:27:42;25.20;43.20
210;DHT22;90;48.810;9.120;2023-07-13T11:30:23;25.10;43.80
210;DHT22;90;48.810;9.120;2023-07-13T11:33:01;24.90;42.70
210;DHT22;90;48.810;9.120;2023-07-13T11:35:29;24.70;43.40
210;DHT22;90;48.810;9.120;2023-07-13T11:37:57;24.70;43.50
210;DHT22;90;48.810;9.120;2023-07-13T11:40:26;24.80;43.40
210;DHT22;90;48.810;9.120;2023-07-13T11:42:59;25.00;43.70
210;DHT22;90;48.810;9.120;2023-07-13T11:45:27;25.30;45.70
210;DHT22;90;48.810;9.120;2023-07-13T11:47:54;25.50;42.40
210;DHT22;90;48.810;9.120;2023-07-13T11:50:24;25.50;42.40
210;DHT22;90;48.810;9.120;2023-07-13T11:52:53;25.50;42.60
210;DHT22;90;48.810;9.120;2023-07-13T11:55:22;25.70;42.10
210;DHT22;90;48.810;9.120;2023-07-13T11:57:53;25.70;41.30
210;DHT22;90;48.810;9.120;2023-07-13T12:00:26;25.70;40.90
210;DHT22;90;48.810;9.120;2023-07-13T12:02:57;25.80;41.40
210;DHT22;90;48.810;9.120;2023-07-13T12:05:28;25.90;41.80
210;DHT22;90;48.810;9.120;2023-07-13T12:07:57;25.90;40.90
210;DHT22;90;48.810;9.120;2023-07-13T12:10:27;26.00;39.90
210;DHT22;90;48.810;9.120;2023-07-13T12:12:58;26.00;39.90
210;DHT22;90;48.810;9.120;2023-07-13T12:15:36;26.00;39.90
210;DHT22;90;48.810;9.120;2023-07-13T12:18:12;26.00;40.00
210;DHT22;90;48.810;9.120;2023-07-13T12:20:40;25.40;40.50
210;DHT22;90;48.810;9.120;2023-07-13T12:23:19;25.20;40.70
210;DHT22;90;48.810;9.120;2023-07-13T12:25:47;25.20;40.60
210;DHT22;90;48.810;9.120;2023-07-13T12:28:21;25.20;40.60
210;DHT22;90;48.810;9.120;2023-07-13T12:30:51;25.60;40.20
210;DHT22;90;48.810;9.120;2023-07-13T12:33:27;25.70;40.20
210;DHT22;90;48.810;9.120;2023-07-13T12:35:55;25.70;40.10
210;DHT22;90;48.810;9.120;2023-07-13T12:38:25;25.70;40.10
210;DHT22;90;48.810;9.120;2023-07-13T12:40:53;25.60;39.90
210;DHT22;90;48.810;9.120;2023-07-13T12:43:21;25.60;40.30
210;DHT22;90;48.810;9.120;2023-07-13T12:45:59;25.70;39.50
210;DHT22;90;48.810;9.120;2023-07-13T12:50:56;26.00;40.20
210;DHT22;90;48.810;9.120;2023-07-13T12:53:30;26.00;39.50
210;DHT22;90;48.810;9.120;2023-07-13T12:56:01;26.00;38.90
210;DHT22;90;48.810;9.120;2023-07-13T12:58:30;26.20;39.40
210;DHT22;90;48.810;9.120;2023-07-13T13:01:00;26.30;38.20
210;DHT22;90;48.810;9.120;2023-07-13T13:03:31;26.20;38.60
210;DHT22;90;48.810;9.120;2023-07-13T13:06:00;26.40;39.10
210;DHT22;90;48.810;9.120;2023-07-13T13:08:30;26.50;38.90
210;DHT22;90;48.810;9.120;2023-07-13T13:15:52;26.30;38.70
210;DHT22;90;48.810;9.120;2023-07-13T13:18:20;26.00;38.40
210;DHT22;90;48.810;9.120;2023-07-13T13:23:16;25.90;41.30
210;DHT22;90;48.810;9.120;2023-07-13T13:25:46;26.00;40.40
210;DHT22;90;48.810;9.120;2023-07-13T13:28:18;26.10;38.70
210;DHT22;90;48.810;9.120;2023-07-13T13:30:46;26.10;38.20
210;DHT22;90;48.810;9.120;2023-07-13T13:33:15;25.80;38.50
210;DHT22;90;48.810;9.120;2023-07-13T13:35:43;25.80;40.10
210;DHT22;90;48.810;9.120;2023-07-13T13:38:11;26.00;38.70
210;DHT22;90;48.810;9.120;2023-07-13T13:40:40;26.00;38.30
210;DHT22;90;48.810;9.120;2023-07-13T13:43:16;26.00;38.30
210;DHT22;90;48.810;9.120;2023-07-13T13:45:44;26.20;38.50
210;DHT22;90;48.810;9.120;2023-07-13T13:48:20;26.40;38.40
210;DHT22;90;48.810;9.120;2023-07-13T13:50:53;26.60;37.70
210;DHT22;90;48.810;9.120;2023-07-13T13:55:49;26.70;37.70
210;DHT22;90;48.810;9.120;2023-07-13T13:58:19;26.80;37.80
210;DHT22;90;48.810;9.120;2023-07-13T14:00:46;26.90;37.70
210;DHT22;90;48.810;9.120;2023-07-13T14:03:16;27.00;37.50
210;DHT22;90;48.810;9.120;2023-07-13T14:08:14;26.90;37.80
210;DHT22;90;48.810;9.120;2023-07-13T14:10:41;27.00;38.00
210;DHT22;90;48.810;9.120;2023-07-13T14:13:16;27.10;37.60
210;DHT22;90;48.810;9.120;2023-07-13T14:15:45;26.90;37.30
210;DHT22;90;48.810;9.120;2023-07-13T14:18:13;26.90;37.20
210;DHT22;90;48.810;9.120;2023-07-13T14:20:43;27.10;37.30
210;DHT22;90;48.810;9.120;2023-07-13T14:23:13;27.20;35.90
210;DHT22;90;48.810;9.120;2023-07-13T14:25:41;27.20;35.90
210;DHT22;90;48.810;9.120;2023-07-13T14:28:21;27.10;36.20
210;DHT22;90;48.810;9.120;2023-07-13T14:30:51;27.00;35.90
210;DHT22;90;48.810;9.120;2023-07-13T14:33:18;27.10;37.10
210;DHT22;90;48.810;9.120;2023-07-13T14:35:45;27.20;37.20
210;DHT22;90;48.810;9.120;2023-07-13T14:38:14;27.40;37.40
210;DHT22;90;48.810;9.120;2023-07-13T14:40:42;27.50;36.40
210;DHT22;90;48.810;9.120;2023-07-13T14:43:11;27.50;37.00
210;DHT22;90;48.810;9.120;2023-07-13T14:45:40;27.40;36.30
210;DHT22;90;48.810;9.120;2023-07-13T14:48:20;27.00;37.10
210;DHT22;90;48.810;9.120;2023-07-13T14:50:51;27.10;37.10
210;DHT22;90;48.810;9.120;2023-07-13T15:03:17;27.30;37.30
210;DHT22;90;48.810;9.120;2023-07-13T15:05:46;27.40;37.40
210;DHT22;90;48.810;9.120;2023-07-13T15:13:16;27.70;36.70
210;DHT22;90;48.810;9.120;2023-07-13T15:15:45;27.60;36.10
210;DHT22;90;48.810;9.120;2023-07-13T15:18:14;27.70;36.60
210;DHT22;90;48.810;9.120;2023-07-13T15:20:43;27.60;36.30
210;DHT22;90;48.810;9.120;2023-07-13T15:23:12;27.60;36.10
210;DHT22;90;48.810;9.120;2023-07-13T15:28:07;27.50;36.40
210;DHT22;90;48.810;9.120;2023-07-13T15:30:38;27.60;36.10
210;DHT22;90;48.810;9.120;2023-07-13T15:33:12;27.90;36.30
210;DHT22;90;48.810;9.120;2023-07-13T15:35:40;28.00;35.50
210;DHT22;90;48.810;9.120;2023-07-13T15:38:17;28.00;35.50
210;DHT22;90;48.810;9.120;2023-07-13T15:43:12;28.00;35.40
210;DHT22;90;48.810;9.120;2023-07-13T15:45:40;28.00;35.40
210;DHT22;90;48.810;9.120;2023-07-13T15:48:16;28.10;35.80
210;DHT22;90;48.810;9.120;2023-07-13T15:50:45;28.30;34.90
210;DHT22;90;48.810;9.120;2023-07-13T15:53:21;28.30;34.90
210;DHT22;90;48.810;9.120;2023-07-13T15:55:49;28.40;34.40
210;DHT22;90;48.810;9.120;2023-07-13T15:58:16;28.10;35.40
210;DHT22;90;48.810;9.120;2023-07-13T16:00:44;28.10;35.60
210;DHT22;90;48.810;9.120;2023-07-13T16:08:20;28.60;34.60
210;DHT22;90;48.810;9.120;2023-07-13T16:13:18;28.50;34.40
210;DHT22;90;48.810;9.120;2023-07-13T16:15:46;28.60;34.30
210;DHT22;90;48.810;9.120;2023-07-13T16:18:14;28.60;34.30
210;DHT22;90;48.810;9.120;2023-07-13T16:20:42;28.60;34.10
210;DHT22;90;48.810;9.120;2023-07-13T16:23:12;28.60;34.10
210;DHT22;90;48.810;9.120;2023-07-13T16:25:41;28.40;34.40
210;DHT22;90;48.810;9.120;2023-07-13T16:28:09;28.40;34.80
210;DHT22;90;48.810;9.120;2023-07-13T16:30:36;28.50;34.40
210;DHT22;90;48.810;9.120;2023-07-13T16:33:04;28.60;34.60
210;DHT22;90;48.810;9.120;2023-07-13T16:35:34;28.70;34.50
210;DHT22;90;48.810;9.120;2023-07-13T16:38:01;28.90;33.90
210;DHT22;90;48.810;9.120;2023-07-13T16:40:32;28.80;33.40
210;DHT22;90;48.810;9.120;2023-07-13T16:43:00;28.90;33.90
210;DHT22;90;48.810;9.120;2023-07-13T16:45:31;28.90;34.10
210;DHT22;90;48.810;9.120;2023-07-13T16:48:00;29.00;34.30
210;DHT22;90;48.810;9.120;2023-07-13T16:50:30;28.70;34.30
210;DHT22;90;48.810;9.120;2023-07-13T16:52:58;28.60;34.40
210;DHT22;90;48.810;9.120;2023-07-13T16:55:26;28.40;34.90
210;DHT22;90;48.810;9.120;2023-07-13T16:57:55;28.40;35.10
210;DHT22;90;48.810;9.120;2023-07-13T17:00:27;28.60;34.90
210;DHT22;90;48.810;9.120;2023-07-13T17:02:55;28.90;34.30
210;DHT22;90;48.810;9.120;2023-07-13T17:05:27;28.80;34.20
210;DHT22;90;48.810;9.120;2023-07-13T17:07:55;28.80;34.20
210;DHT22;90;48.810;9.120;2023-07-13T17:10:22;28.60;34.40
210;DHT22;90;48.810;9.120;2023-07-13T17:12:49;28.50;34.90
210;DHT22;90;48.810;9.120;2023-07-13T17:15:17;28.50;34.90
210;DHT22;90;48.810;9.120;2023-07-13T17:17:48;28.60;34.70
210;DHT22;90;48.810;9.120;2023-07-13T17:20:19;28.50;34.70
210;DHT22;90;48.810;9.120;2023-07-13T17:25:17;28.80;34.40
210;DHT22;90;48.810;9.120;2023-07-13T17:30:18;28.80;34.50
210;DHT22;90;48.810;9.120;2023-07-13T17:32:49;28.80;34.30
210;DHT22;90;48.810;9.120;2023-07-13T17:35:24;28.80;34.30
210;DHT22;90;48.810;9.120;2023-07-13T17:37:53;28.80;34.50
210;DHT22;90;48.810;9.120;2023-07-13T17:40:20;28.80;34.50
210;DHT22;90;48.810;9.120;2023-07-13T17:42:49;28.10;35.70
210;DHT22;90;48.810;9.120;2023-07-13T17:45:21;27.80;36.50
210;DHT22;90;48.810;9.120;2023-07-13T17:47:49;27.60;36.60
210;DHT22;90;48.810;9.120;2023-07-13T17:50:23;27.50;36.50
210;DHT22;90;48.810;9.120;2023-07-13T17:55:18;27.10;37.20
210;DHT22;90;48.810;9.120;2023-07-13T17:58:16;27.10;37.20
210;DHT22;90;48.810;9.120;2023-07-13T18:00:46;27.40;37.00
210;DHT22;90;48.810;9.120;2023-07-13T18:03:17;27.40;37.30
210;DHT22;90;48.810;9.120;2023-07-13T18:05:46;27.40;37.80
210;DHT22;90;48.810;9.120;2023-07-13T18:08:24;27.40;37.80